Rabb, Texas
Current Conditions -  °F | °C
As of 6:51 AM on Wednesday 22 Oct 2014 (Local Time) from KCRP Reporting Station
Broken Clouds Broken Clouds  
Wind Chill: 19°   Ceiling: 20000
Heat Index: 19°   Visibility: 10mi
Dew Point: 18°   Wind: 8mph
Humidity: 93%   Direction: 10°N
Pressure: 30"   Gusts: NA
Location:  27.7757°N, 97.7554°W
Report Text: KCRP 221151Z 01007KT 10SM FEW018 BKN200 19/18 A3000 RMK AO2 SLP157 T01940183 10233 20194 53010
Loading
Personal Weather Stations






























Interactive Weather Map
Tropical Storm Tracking
New forecast layout! Learn more

10-Day Weather Forecast

Advertisements
Track Severe Weather on mobile